Blanchard, Idaho
Current Conditions -  °F | °C
As of 6:35 PM on Wednesday 22 Oct 2014 (Local Time) from KCOE Reporting Station
Overcast Overcast  
Wind Chill: 52°   Ceiling: 6000
Heat Index: 52°   Visibility: 10mi
Dew Point: 43°   Wind: 8mph
Humidity: 71%   Direction: 20°NNE
Pressure: 29.8"   Gusts: NA
Location:  48.02°N, 116.99°W
Report Text: KCOE 230135Z AUTO 02007KT 10SM OVC060 11/06 A2980 RMK AO1
Loading
Personal Weather Stations






























Interactive Weather Map
Tropical Storm Tracking
New forecast layout! Learn more

10-Day Weather Forecast

Advertisements
Track Severe Weather on mobile